Time;durP1;ratioP1;P1;durP2;ratioP2;P2;SDS_P1;SDS_P2;PMS_P1;PMS_P2;Temp;Humidity;BMP_temperature;BMP_pressure;BME280_temperature;BME280_humidity;BME280_pressure;Samples;Min_cycle;Max_cycle;Signal;HPM_P1;HPM_P2
2023/09/19 00:01:08;;;;;;;16.05;5.82;;;;;;;16.76;100.00;98891.53;5161510;27;20046;-63
2023/09/19 00:03:37;;;;;;;10.68;8.13;;;;;;;16.66;100.00;98996.41;5161150;27;20057;-63
2023/09/19 00:06:03;;;;;;;6.78;5.40;;;;;;;16.46;100.00;98769.31;5161143;27;20058;-65
2023/09/19 00:08:29;;;;;;;18.35;7.25;;;;;;;16.74;100.00;98617.13;5160983;27;20046;-65
2023/09/19 00:10:56;;;;;;;12.15;5.97;;;;;;;16.85;100.00;98751.44;5161103;27;20072;-64
2023/09/19 00:13:23;;;;;;;10.40;6.60;;;;;;;16.82;100.00;98826.22;5160837;27;20112;-64
2023/09/19 00:15:50;;;;;;;16.08;6.57;;;;;;;16.72;100.00;98714.41;5161110;27;20408;-63
2023/09/19 00:18:18;;;;;;;12.52;6.68;;;;;;;16.74;100.00;98772.91;5160595;27;20057;-64
2023/09/19 00:20:47;;;;;;;14.85;6.07;;;;;;;16.75;100.00;98683.16;5161129;27;20439;-65
2023/09/19 00:23:13;;;;;;;9.00;6.00;;;;;;;16.84;100.00;98589.31;5160920;27;20058;-66
2023/09/19 00:25:40;;;;;;;11.07;6.13;;;;;;;16.78;100.00;98653.88;5160511;27;20321;-63
2023/09/19 00:28:07;;;;;;;9.98;8.35;;;;;;;16.89;100.00;98583.31;5160691;27;20397;-65
2023/09/19 00:30:33;;;;;;;9.35;6.13;;;;;;;16.74;100.00;98559.78;5160623;27;20111;-63
2023/09/19 00:33:00;;;;;;;9.38;8.40;;;;;;;16.75;100.00;98519.84;5160912;27;20355;-65
2023/09/19 00:35:27;;;;;;;13.77;6.25;;;;;;;16.77;100.00;98574.81;5160539;27;20056;-63
2023/09/19 00:37:54;;;;;;;9.95;6.88;;;;;;;16.56;100.00;98717.81;5160870;27;20051;-62
2023/09/19 00:40:21;;;;;;;17.88;7.03;;;;;;;16.65;100.00;98661.94;5160362;27;20138;-63
2023/09/19 00:42:48;;;;;;;10.73;8.43;;;;;;;16.43;100.00;98559.09;5160725;27;20080;-63
2023/09/19 00:45:16;;;;;;;11.05;5.85;;;;;;;16.54;100.00;98559.72;5160239;27;20137;-65
2023/09/19 00:47:48;;;;;;;9.80;6.75;;;;;;;16.29;100.00;98587.75;5160049;27;20141;-63
2023/09/19 00:50:17;;;;;;;8.93;5.93;;;;;;;16.16;100.00;98521.19;5160498;27;20143;-64
2023/09/19 00:52:44;;;;;;;12.25;8.77;;;;;;;16.16;100.00;98564.63;5160090;27;20050;-65
2023/09/19 00:55:11;;;;;;;8.88;7.60;;;;;;;16.48;100.00;98376.78;5160400;27;20145;-63
2023/09/19 00:57:39;;;;;;;8.35;5.50;;;;;;;16.61;100.00;98309.78;5160302;27;20050;-63
2023/09/19 01:00:07;;;;;;;11.05;5.30;;;;;;;16.42;100.00;98276.13;5160518;27;20308;-62
2023/09/19 01:02:33;;;;;;;9.30;5.20;;;;;;;16.36;100.00;98315.78;5160055;27;20061;-62
2023/09/19 01:04:59;;;;;;;13.13;5.55;;;;;;;16.67;100.00;98202.91;5160331;27;20061;-64
2023/09/19 01:07:26;;;;;;;15.48;5.78;;;;;;;16.47;100.00;98167.75;5158711;27;20435;-62
2023/09/19 01:09:52;;;;;;;14.65;5.43;;;;;;;16.50;100.00;98152.28;5160208;27;20141;-65
2023/09/19 01:12:26;;;;;;;7.85;5.70;;;;;;;16.27;100.00;98150.41;5159890;27;20112;-65
2023/09/19 01:14:58;;;;;;;14.63;5.93;;;;;;;16.63;100.00;98150.41;5159812;27;20050;-63
2023/09/19 01:17:29;;;;;;;11.10;7.90;;;;;;;16.56;100.00;98147.00;5159823;27;20366;-64
2023/09/19 01:20:17;;;;;;;10.80;5.93;;;;;;;16.44;100.00;98134.66;5159674;27;20511;-64
2023/09/19 01:23:01;;;;;;;7.43;5.40;;;;;;;16.41;100.00;98118.91;5159953;27;20350;-62
2023/09/19 01:25:57;;;;;;;12.32;5.85;;;;;;;16.43;100.00;98111.75;5159670;27;20061;-63
2023/09/19 01:28:40;;;;;;;15.05;5.43;;;;;;;16.24;100.00;98121.63;5159571;27;20137;-64
2023/09/19 01:31:10;;;;;;;9.77;5.50;;;;;;;16.35;100.00;98115.84;5159896;27;20046;-65
2023/09/19 01:33:57;;;;;;;12.40;5.90;;;;;;;16.38;100.00;98126.06;5159529;27;20148;-65
2023/09/19 01:36:23;;;;;;;10.18;8.13;;;;;;;16.37;100.00;98105.16;5159849;27;20054;-63
2023/09/19 01:38:49;;;;;;;7.20;5.65;;;;;;;16.14;100.00;98089.47;5159445;27;20050;-64
2023/09/19 01:41:22;;;;;;;10.88;5.20;;;;;;;16.14;100.00;98094.22;5159719;27;20435;-62
2023/09/19 01:43:50;;;;;;;13.00;5.38;;;;;;;16.03;100.00;98111.03;5159276;27;20054;-63
2023/09/19 01:46:23;;;;;;;10.88;5.72;;;;;;;16.03;100.00;98091.69;5159683;27;20050;-62
2023/09/19 01:48:58;;;;;;;12.25;8.10;;;;;;;16.33;100.00;98096.16;5159215;27;20095;-64
2023/09/19 01:51:34;;;;;;;10.38;5.40;;;;;;;15.94;100.00;98106.06;5159421;27;20050;-64
2023/09/19 01:54:03;;;;;;;7.18;5.90;;;;;;;15.93;100.00;98099.00;5159609;27;20133;-64
2023/09/19 01:56:32;;;;;;;10.50;5.80;;;;;;;15.94;100.00;98078.44;5159267;27;20055;-65
2023/09/19 01:59:12;;;;;;;6.32;4.97;;;;;;;16.12;100.00;98063.44;5159516;27;20104;-63
2023/09/19 02:01:40;;;;;;;15.32;5.70;;;;;;;15.83;100.00;98050.25;5159153;27;20123;-63
2023/09/19 02:04:07;;;;;;;10.05;5.78;;;;;;;16.14;100.00;98061.03;5159585;27;20057;-65
2023/09/19 02:06:34;;;;;;;11.90;5.72;;;;;;;16.02;100.00;98026.53;5159167;27;20069;-63
2023/09/19 02:09:00;;;;;;;7.65;5.60;;;;;;;16.34;100.00;98034.09;5159141;27;20328;-65
2023/09/19 02:11:26;;;;;;;9.57;7.05;;;;;;;16.14;100.00;98000.97;5159517;27;20369;-63
2023/09/19 02:13:54;;;;;;;13.60;7.72;;;;;;;15.77;100.00;98027.09;5158846;27;20183;-64
2023/09/19 02:16:20;;;;;;;7.85;5.35;;;;;;;16.06;100.00;98026.44;5159153;27;20095;-63
2023/09/19 02:18:48;;;;;;;9.30;5.65;;;;;;;15.85;100.00;98011.13;5158224;27;20429;-65
2023/09/19 02:21:14;;;;;;;6.20;4.88;;;;;;;15.54;100.00;98038.97;5158826;27;20054;-64
2023/09/19 02:23:40;;;;;;;11.77;5.88;;;;;;;15.81;100.00;98041.59;5158819;27;20149;-64
2023/09/19 02:26:06;;;;;;;9.65;5.55;;;;;;;15.46;100.00;98049.38;5158843;27;20051;-63
2023/09/19 02:28:33;;;;;;;6.75;5.57;;;;;;;15.65;100.00;98035.97;5158547;27;20051;-62
2023/09/19 02:31:00;;;;;;;9.27;5.43;;;;;;;15.44;100.00;98026.94;5159119;27;20062;-66
2023/09/19 02:33:25;;;;;;;12.35;7.68;;;;;;;15.43;100.00;98044.72;5158507;27;20046;-63
2023/09/19 02:35:57;;;;;;;9.80;5.80;;;;;;;15.44;100.00;98067.59;5158789;27;20137;-62
2023/09/19 02:38:24;;;;;;;8.48;5.18;;;;;;;15.20;100.00;98072.38;5158452;27;20297;-64
2023/09/19 02:40:50;;;;;;;8.82;7.72;;;;;;;15.05;100.00;98125.06;5158488;27;20359;-63
2023/09/19 02:43:17;;;;;;;14.00;5.90;;;;;;;15.25;100.00;98100.25;5158438;27;20141;-63
2023/09/19 02:45:43;;;;;;;12.52;4.90;;;;;;;14.76;100.00;98148.78;5158415;27;20149;-63
2023/09/19 02:48:11;;;;;;;13.35;7.32;;;;;;;14.79;100.00;98237.03;5158665;27;20069;-62
2023/09/19 02:50:38;;;;;;;8.35;5.78;;;;;;;14.91;100.00;98218.34;5158320;27;20086;-63
2023/09/19 02:53:05;;;;;;;8.73;5.78;;;;;;;15.00;100.00;98208.34;5158737;27;20118;-64
2023/09/19 02:55:31;;;;;;;8.52;7.68;;;;;;;14.86;100.00;98254.66;5158220;27;20446;-65
2023/09/19 02:57:57;;;;;;;7.78;5.40;;;;;;;14.78;100.00;98201.56;5158612;27;20046;-65
2023/09/19 03:00:24;;;;;;;8.75;5.32;;;;;;;14.75;100.00;98296.22;5158170;27;20404;-64
2023/09/19 03:02:51;;;;;;;7.95;5.65;;;;;;;14.61;100.00;98318.47;5157980;27;20050;-64
2023/09/19 03:05:17;;;;;;;8.00;5.40;;;;;;;14.62;100.00;98295.97;5158243;27;20050;-64
2023/09/19 03:07:46;;;;;;;10.20;6.13;;;;;;;14.63;100.00;98305.03;5157871;27;20424;-62
2023/09/19 03:10:15;;;;;;;9.20;5.28;;;;;;;14.65;100.00;98324.72;5158125;27;20047;-63
2023/09/19 03:12:41;;;;;;;9.63;5.70;;;;;;;14.54;100.00;98375.28;5158104;27;20047;-64
2023/09/19 03:15:08;;;;;;;6.80;4.90;;;;;;;14.50;100.00;98335.91;5158381;27;20073;-64
2023/09/19 03:17:35;;;;;;;8.02;6.32;;;;;;;14.68;100.00;98399.16;5158025;27;20055;-63
2023/09/19 03:20:01;;;;;;;9.27;5.90;;;;;;;14.57;100.00;98327.56;5158328;27;20054;-62
2023/09/19 03:22:27;;;;;;;9.00;5.60;;;;;;;14.64;100.00;98334.19;5157861;27;20367;-63
2023/09/19 03:24:53;;;;;;;8.77;5.40;;;;;;;14.30;100.00;98390.06;5158273;27;20054;-65
2023/09/19 03:27:20;;;;;;;9.95;6.07;;;;;;;14.41;100.00;98396.25;5158179;27;20149;-63
2023/09/19 03:29:46;;;;;;;8.55;6.00;;;;;;;14.26;100.00;98403.91;5158108;27;20047;-63
2023/09/19 03:32:12;;;;;;;10.02;6.13;;;;;;;14.45;100.00;98457.66;5160468;27;20065;-62
2023/09/19 03:34:42;;;;;;;11.02;8.75;;;;;;;14.35;100.00;98423.47;5161340;27;20051;-64
2023/09/19 03:37:08;;;;;;;16.23;6.50;;;;;;;14.29;100.00;98474.72;5161638;27;20137;-64
2023/09/19 03:39:34;;;;;;;8.10;5.07;;;;;;;14.34;100.00;98479.03;5161280;27;20103;-63
2023/09/19 03:42:01;;;;;;;13.38;5.95;;;;;;;14.32;100.00;98453.84;5161751;27;20046;-62
2023/09/19 03:44:27;;;;;;;9.48;5.78;;;;;;;14.14;100.00;98506.38;5161199;27;20414;-63
2023/09/19 03:46:55;;;;;;;8.55;6.25;;;;;;;14.12;100.00;98498.50;5161503;27;20471;-64
2023/09/19 03:49:21;;;;;;;11.45;5.93;;;;;;;14.42;100.00;98425.38;5161157;27;20046;-63
2023/09/19 03:51:47;;;;;;;7.78;5.82;;;;;;;14.08;100.00;98433.56;5161667;27;20047;-63
2023/09/19 03:54:13;;;;;;;10.75;6.32;;;;;;;14.13;100.00;98474.50;5161176;27;20119;-64
2023/09/19 03:56:39;;;;;;;9.43;6.65;;;;;;;14.00;100.00;98534.81;5161091;27;20335;-64
2023/09/19 03:59:05;;;;;;;12.13;9.00;;;;;;;14.16;100.00;98550.88;5181795;27;20054;-65
2023/09/19 04:01:33;;;;;;;10.10;8.95;;;;;;;14.03;100.00;98494.66;5181904;27;20054;-64
2023/09/19 04:04:07;;;;;;;11.20;6.40;;;;;;;13.94;100.00;98552.97;5182254;27;20050;-64
2023/09/19 04:06:34;;;;;;;8.32;5.72;;;;;;;13.94;100.00;98516.34;5181743;27;20416;-62
2023/09/19 04:09:00;;;;;;;9.52;6.05;;;;;;;14.05;100.00;98566.66;5182170;27;20315;-64
2023/09/19 04:11:26;;;;;;;7.82;5.78;;;;;;;14.00;100.00;98499.00;5181791;27;20046;-64
2023/09/19 04:13:52;;;;;;;10.40;5.63;;;;;;;13.79;100.00;98502.63;5182262;27;20057;-63
2023/09/19 04:16:18;;;;;;;12.38;6.18;;;;;;;14.17;100.00;98446.91;5181703;27;20078;-62
2023/09/19 04:18:45;;;;;;;13.45;6.32;;;;;;;13.76;100.00;98464.91;5182082;27;20145;-62
2023/09/19 04:21:11;;;;;;;8.55;6.20;;;;;;;13.73;100.00;98600.69;5181580;27;20133;-62
2023/09/19 04:23:37;;;;;;;7.28;5.70;;;;;;;13.79;100.00;98530.19;5182116;27;20145;-64
2023/09/19 04:26:04;;;;;;;13.40;6.65;;;;;;;14.00;100.00;98482.47;5181452;27;20113;-65
2023/09/19 04:28:30;;;;;;;7.70;5.72;;;;;;;13.96;100.00;98464.34;5181774;27;20058;-63
2023/09/19 04:30:57;;;;;;;12.43;6.35;;;;;;;14.21;100.00;98422.84;5181704;27;20211;-62
2023/09/19 04:33:23;;;;;;;11.80;6.35;;;;;;;14.16;100.00;98293.72;5181557;27;20196;-62
2023/09/19 04:35:50;;;;;;;10.35;8.70;;;;;;;14.43;100.00;98286.34;5181421;27;20148;-63
2023/09/19 04:38:17;;;;;;;16.50;6.40;;;;;;;15.10;100.00;98142.34;5181262;27;20368;-63
2023/09/19 04:40:43;;;;;;;7.70;6.18;;;;;;;15.27;100.00;97970.09;5181439;27;20082;-63
2023/09/19 04:43:09;;;;;;;13.75;5.75;;;;;;;16.05;100.00;97934.44;5180881;27;20088;-64
2023/09/19 04:45:35;;;;;;;8.50;5.78;;;;;;;16.27;100.00;97945.78;5181395;27;20097;-64
2023/09/19 04:48:02;;;;;;;9.13;5.88;;;;;;;15.97;100.00;97957.94;5181125;27;20088;-65
2023/09/19 04:50:29;;;;;;;9.77;5.85;;;;;;;16.69;100.00;98024.16;5181703;27;20304;-64
2023/09/19 04:52:56;;;;;;;10.90;5.80;;;;;;;17.07;100.00;98062.38;5181020;27;20054;-66
2023/09/19 04:55:22;;;;;;;8.10;5.70;;;;;;;17.72;100.00;98114.06;5180780;27;20110;-65
2023/09/19 04:57:49;;;;;;;11.45;5.95;;;;;;;18.09;100.00;98222.78;5181036;27;20046;-64
2023/09/19 05:00:17;;;;;;;13.10;8.30;;;;;;;17.54;100.00;98247.56;5180803;27;20136;-65
2023/09/19 05:02:42;;;;;;;8.95;5.40;;;;;;;17.86;100.00;98249.56;5181063;27;20380;-64
2023/09/19 05:05:10;;;;;;;11.80;5.40;;;;;;;17.30;100.00;98212.97;5180547;27;20137;-64
2023/09/19 05:07:36;;;;;;;8.40;5.35;;;;;;;17.57;100.00;98234.84;5181144;27;20050;-65
2023/09/19 05:10:05;;;;;;;8.48;5.35;;;;;;;18.59;100.00;98324.06;5180820;27;20129;-63
2023/09/19 05:12:31;;;;;;;9.93;7.40;;;;;;;17.95;100.00;98289.75;5181037;27;20319;-63
2023/09/19 05:14:57;;;;;;;10.30;7.35;;;;;;;18.37;100.00;98315.56;5180649;27;20042;-64
2023/09/19 05:17:24;;;;;;;10.43;5.97;;;;;;;19.18;100.00;98347.03;5181142;27;20092;-62
2023/09/19 05:19:50;;;;;;;7.93;5.93;;;;;;;19.01;100.00;98424.09;5180598;27;20060;-63
2023/09/19 05:22:18;;;;;;;12.82;5.47;;;;;;;19.24;100.00;98440.50;5180978;27;20103;-64
2023/09/19 05:24:47;;;;;;;12.52;5.45;;;;;;;19.97;100.00;98470.53;5180746;27;20133;-62
2023/09/19 05:27:13;;;;;;;6.85;5.03;;;;;;;20.29;100.00;98465.94;5180600;27;20047;-65
2023/09/19 05:29:40;;;;;;;9.77;5.32;;;;;;;20.60;100.00;98510.72;5180306;27;20081;-65
2023/09/19 05:32:06;;;;;;;11.57;5.75;;;;;;;20.86;100.00;98511.44;5180490;27;20050;-62
2023/09/19 05:34:31;;;;;;;16.20;6.95;;;;;;;21.37;100.00;98534.31;5180639;27;20141;-62
2023/09/19 05:36:58;;;;;;;8.43;5.53;;;;;;;21.03;100.00;98525.97;5179562;27;20050;-63
2023/09/19 05:39:24;;;;;;;9.02;5.78;;;;;;;20.70;100.00;98515.13;5174367;27;20042;-65
2023/09/19 05:41:49;;;;;;;13.20;5.60;;;;;;;20.86;100.00;98505.84;5177352;27;20069;-63
2023/09/19 05:44:16;;;;;;;7.22;5.10;;;;;;;21.57;100.00;98538.81;5180407;27;20419;-63
2023/09/19 05:46:42;;;;;;;9.93;6.00;;;;;;;22.07;100.00;98551.66;5179771;27;20141;-62
2023/09/19 05:49:08;;;;;;;16.23;5.40;;;;;;;21.32;100.00;98542.44;5180493;27;20046;-61
2023/09/19 05:51:35;;;;;;;11.82;5.45;;;;;;;20.87;100.00;98551.97;5179881;27;20050;-61
2023/09/19 05:54:01;;;;;;;7.75;5.75;;;;;;;21.25;100.00;98528.78;5179285;27;20050;-65
2023/09/19 05:56:27;;;;;;;13.05;7.63;;;;;;;20.80;100.00;98519.56;5179727;27;20046;-62
2023/09/19 05:58:53;;;;;;;9.98;5.55;;;;;;;20.33;100.00;98520.28;5178250;27;20107;-63
2023/09/19 06:01:20;;;;;;;11.60;7.50;;;;;;;19.76;100.00;98474.78;5180269;27;20137;-64
2023/09/19 06:03:46;;;;;;;9.95;5.90;;;;;;;20.39;100.00;98473.97;5177562;27;20053;-64
2023/09/19 06:06:11;;;;;;;16.52;6.15;;;;;;;19.11;100.00;98442.47;5175216;27;20396;-65
2023/09/19 06:08:37;;;;;;;10.85;6.45;;;;;;;19.94;100.00;98457.53;5162954;27;20046;-64
2023/09/19 06:11:05;;;;;;;11.38;5.60;;;;;;;21.15;100.00;98498.03;5161569;27;20046;-65
2023/09/19 06:13:33;;;;;;;8.85;5.15;;;;;;;20.32;100.00;98520.72;5179607;27;20098;-63
2023/09/19 06:16:02;;;;;;;10.07;5.63;;;;;;;20.43;100.00;98482.97;5169107;27;20436;-63
2023/09/19 06:18:33;;;;;;;7.32;5.75;;;;;;;21.51;100.00;98523.88;5165820;27;20046;-62
2023/09/19 06:20:59;;;;;;;10.38;6.32;;;;;;;21.32;100.00;98534.09;5176662;27;20054;-62
2023/09/19 06:23:26;;;;;;;9.88;5.75;;;;;;;21.54;100.00;98532.13;5174970;27;20399;-62
2023/09/19 06:25:53;;;;;;;9.82;5.90;;;;;;;22.05;100.00;98554.09;5179178;27;20174;-62
2023/09/19 06:28:23;;;;;;;14.23;7.15;;;;;;;23.10;100.00;98570.34;5179031;27;20065;-63
2023/09/19 06:30:49;;;;;;;10.75;4.93;;;;;;;22.55;100.00;98568.91;5179288;27;20080;-61
2023/09/19 06:33:17;;;;;;;13.55;6.97;;;;;;;23.12;100.00;98556.66;5178779;27;20137;-62
2023/09/19 06:35:46;;;;;;;8.95;5.72;;;;;;;22.38;100.00;98553.66;5179287;27;20369;-61
2023/09/19 06:38:13;;;;;;;8.85;5.50;;;;;;;23.60;100.00;98568.94;5178406;27;20057;-60
2023/09/19 06:40:40;;;;;;;9.85;5.68;;;;;;;22.62;100.00;98569.88;5178155;27;20050;-62
2023/09/19 06:43:06;;;;;;;10.25;5.47;;;;;;;23.93;100.00;98579.47;5178798;27;20494;-60
2023/09/19 06:45:32;;;;;;;8.93;5.57;;;;;;;24.19;100.00;98588.25;5176639;27;20054;-60
2023/09/19 06:47:59;;;;;;;9.80;7.05;;;;;;;23.66;100.00;98585.88;5179057;27;20455;-61
2023/09/19 06:50:26;;;;;;;13.95;7.10;;;;;;;23.44;100.00;98581.22;5179368;27;20144;-60
2023/09/19 06:52:55;;;;;;;10.00;7.20;;;;;;;23.99;100.00;98580.38;5178939;27;20046;-60
2023/09/19 06:55:24;;;;;;;13.80;6.78;;;;;;;24.55;100.00;98576.16;5179119;27;20048;-61
2023/09/19 06:57:51;;;;;;;13.63;8.30;;;;;;;23.43;100.00;98562.09;5178902;27;20046;-61
2023/09/19 07:00:18;;;;;;;11.95;7.95;;;;;;;22.86;100.00;98548.53;5179095;27;20133;-60
2023/09/19 07:02:44;;;;;;;9.38;7.32;;;;;;;22.54;100.00;98550.63;5178628;27;20052;-62
2023/09/19 07:05:10;;;;;;;7.95;5.68;;;;;;;22.36;100.00;98538.59;5178848;27;20141;-60
2023/09/19 07:07:36;;;;;;;10.30;5.53;;;;;;;22.85;100.00;98546.19;5178659;27;20457;-59
2023/09/19 07:10:05;;;;;;;39.15;6.57;;;;;;;23.80;100.00;98556.50;5178949;27;20108;-59
2023/09/19 07:12:31;;;;;;;11.55;5.85;;;;;;;24.30;100.00;98568.94;5178526;27;20096;-61
2023/09/19 07:14:57;;;;;;;12.60;5.55;;;;;;;25.35;100.00;98573.81;5178646;27;20144;-63
2023/09/19 07:17:23;;;;;;;10.40;6.93;;;;;;;23.98;100.00;98576.03;5178979;27;20171;-64
2023/09/19 07:19:50;;;;;;;10.35;6.95;;;;;;;24.79;100.00;98575.41;5178866;27;20110;-63
2023/09/19 07:22:16;;;;;;;12.38;6.85;;;;;;;25.67;99.01;98574.94;5178739;27;20407;-63
2023/09/19 07:24:42;;;;;;;13.70;7.03;;;;;;;24.64;100.00;98569.75;5178526;27;20093;-67
2023/09/19 07:27:09;;;;;;;11.23;6.80;;;;;;;23.59;100.00;98564.59;5178751;27;20081;-63
2023/09/19 07:29:35;;;;;;;13.35;6.93;;;;;;;24.61;100.00;98565.09;5178485;27;20042;-64
2023/09/19 07:32:01;;;;;;;13.27;7.20;;;;;;;24.94;100.00;98561.47;5178795;27;20360;-63
2023/09/19 07:34:27;;;;;;;13.48;6.28;;;;;;;24.61;100.00;98565.09;5178285;27;20147;-63
2023/09/19 07:36:53;;;;;;;13.27;6.45;;;;;;;25.67;100.00;98572.16;5178485;27;20058;-61
2023/09/19 07:39:20;;;;;;;9.13;6.47;;;;;;;25.50;100.00;98560.59;5178189;27;20046;-59
2023/09/19 07:41:46;;;;;;;10.65;6.65;;;;;;;24.63;100.00;98562.59;5178810;27;20065;-60
2023/09/19 07:44:14;;;;;;;14.52;7.05;;;;;;;25.76;95.21;98562.88;5178690;27;20051;-65
2023/09/19 07:46:40;;;;;;;20.17;7.93;;;;;;;25.79;93.95;98553.44;5178195;27;20046;-61
2023/09/19 07:49:07;;;;;;;13.90;8.15;;;;;;;26.99;91.69;98558.41;5178388;27;20182;-61
2023/09/19 07:51:33;;;;;;;14.30;7.32;;;;;;;27.64;83.10;98572.25;5178431;27;20335;-64
2023/09/19 07:53:59;;;;;;;15.77;6.53;;;;;;;27.13;89.89;98554.78;5178661;27;20077;-63
2023/09/19 07:56:27;;;;;;;10.65;6.90;;;;;;;26.59;94.71;98553.50;5178309;27;20111;-64
2023/09/19 07:58:53;;;;;;;10.77;6.07;;;;;;;27.32;88.36;98554.47;5178587;27;20054;-61
2023/09/19 08:01:23;;;;;;;14.55;7.65;;;;;;;27.63;88.09;98556.63;5178264;27;20111;-63
2023/09/19 08:03:50;;;;;;;12.23;7.07;;;;;;;26.41;93.96;98546.06;5178570;27;20046;-63
2023/09/19 08:06:16;;;;;;;12.27;6.63;;;;;;;25.18;100.00;98539.06;5177968;27;20114;-64
2023/09/19 08:08:42;;;;;;;8.82;6.15;;;;;;;25.78;100.00;98527.41;5178641;27;20050;-63
2023/09/19 08:11:11;;;;;;;14.60;6.40;;;;;;;25.46;99.86;98528.34;5177915;27;20468;-65
2023/09/19 08:13:41;;;;;;;15.48;6.38;;;;;;;25.96;94.87;98526.50;5178245;27;20336;-66
2023/09/19 08:16:07;;;;;;;10.38;6.20;;;;;;;25.91;99.40;98512.34;5178138;27;20054;-62
2023/09/19 08:18:33;;;;;;;9.02;6.55;;;;;;;26.84;92.48;98523.97;5180689;27;20061;-63
2023/09/19 08:21:00;;;;;;;11.82;6.07;;;;;;;26.78;94.36;98523.13;5181883;27;20042;-60
2023/09/19 08:23:26;;;;;;;8.90;5.95;;;;;;;25.90;97.68;98520.00;5181509;27;20042;-64
2023/09/19 08:25:56;;;;;;;10.52;5.53;;;;;;;25.41;100.00;98510.16;5181456;27;20454;-65
2023/09/19 08:28:24;;;;;;;14.90;5.93;;;;;;;25.80;98.16;98499.66;5181012;27;20054;-63
2023/09/19 08:30:50;;;;;;;6.90;5.38;;;;;;;26.16;98.07;98508.16;5181179;27;20399;-64
2023/09/19 08:33:16;;;;;;;15.00;6.00;;;;;;;25.93;100.00;98510.59;5181529;27;20098;-66
2023/09/19 08:35:45;;;;;;;11.20;6.15;;;;;;;26.87;97.09;98506.88;5181088;27;20057;-65
2023/09/19 08:38:11;;;;;;;8.73;5.38;;;;;;;26.44;92.43;98506.53;5181428;27;20065;-67
2023/09/19 08:40:39;;;;;;;15.43;5.78;;;;;;;25.96;99.25;98500.44;5181225;27;20054;-63
2023/09/19 08:43:06;;;;;;;11.63;5.47;;;;;;;27.34;85.61;98504.13;5181556;27;20154;-70
2023/09/19 08:45:32;;;;;;;6.05;5.45;;;;;;;26.27;91.37;98503.47;5181329;27;20046;-69
2023/09/19 08:48:11;;;;;;;9.30;5.68;;;;;;;27.57;86.90;98507.94;5180782;27;20468;-68
2023/09/19 08:50:43;;;;;;;10.55;5.70;;;;;;;27.60;85.41;98502.09;5180838;27;20061;-61
2023/09/19 08:53:12;;;;;;;9.10;5.53;;;;;;;26.11;96.52;98492.75;5180918;27;20046;-65
2023/09/19 08:55:41;;;;;;;9.65;5.03;;;;;;;26.87;90.26;98497.66;5181223;27;20307;-61
2023/09/19 08:58:10;;;;;;;9.80;5.57;;;;;;;27.33;88.56;98497.72;5180744;27;20058;-61
2023/09/19 09:00:37;;;;;;;9.15;5.53;;;;;;;26.63;92.05;98497.88;5181090;27;20046;-62
2023/09/19 09:03:06;;;;;;;9.07;5.20;;;;;;;27.42;85.11;98493.97;5180785;27;20372;-69
2023/09/19 09:05:35;;;;;;;11.77;5.50;;;;;;;27.02;88.31;98506.03;5180814;27;20434;-67
2023/09/19 09:08:02;;;;;;;10.23;5.10;;;;;;;27.18;87.42;98502.66;5180864;27;20145;-63
2023/09/19 09:10:29;;;;;;;13.07;4.95;;;;;;;27.94;84.49;98499.59;5180618;27;20050;-63
2023/09/19 09:12:55;;;;;;;8.20;5.30;;;;;;;28.50;82.00;98493.59;5181140;27;20132;-66
2023/09/19 09:15:23;;;;;;;7.88;5.00;;;;;;;26.88;87.21;98488.72;5180618;27;20476;-67
2023/09/19 09:17:52;;;;;;;12.30;5.13;;;;;;;27.71;82.13;98492.19;5180501;27;20442;-61
2023/09/19 09:20:18;;;;;;;14.20;4.90;;;;;;;26.79;90.05;98485.28;5180557;27;20049;-66
2023/09/19 09:22:53;;;;;;;9.35;5.07;;;;;;;25.92;92.68;98485.81;5180827;27;20050;-62
2023/09/19 09:25:23;;;;;;;11.88;5.20;;;;;;;25.73;95.23;98477.56;5180337;27;20050;-62
2023/09/19 09:28:00;;;;;;;9.07;4.90;;;;;;;26.29;96.63;98475.66;5180679;27;20082;-61
2023/09/19 09:30:33;;;;;;;8.07;5.03;;;;;;;26.62;90.95;98466.16;5179720;27;20426;-61
2023/09/19 09:33:10;;;;;;;9.00;5.13;;;;;;;26.80;92.03;98473.56;5180607;27;20132;-66
2023/09/19 09:35:37;;;;;;;8.98;5.20;;;;;;;27.44;87.67;98468.91;5181592;27;20146;-68
2023/09/19 09:38:08;;;;;;;10.65;5.05;;;;;;;28.15;84.88;98472.84;5181479;27;20138;-64
2023/09/19 09:40:47;;;;;;;8.98;4.82;;;;;;;28.04;83.27;98474.81;5185410;27;20050;-63
2023/09/19 09:43:29;;;;;;;14.00;4.97;;;;;;;26.70;87.34;98469.34;5181593;27;20046;-63
2023/09/19 09:51:39;;;;;;;7.63;4.90;;;;;;;27.07;89.51;98452.66;5176389;27;20046;-64
2023/09/19 09:54:12;;;;;;;7.70;4.80;;;;;;;26.61;90.13;98455.41;5180370;27;20074;-69
2023/09/19 09:56:52;;;;;;;8.15;4.30;;;;;;;25.23;98.54;98445.84;5180096;27;20054;-67
2023/09/19 09:59:23;;;;;;;8.68;5.32;;;;;;;25.50;97.98;98450.38;5180140;27;20133;-68
2023/09/19 10:01:50;;;;;;;17.55;5.03;;;;;;;25.66;94.98;98447.09;5180144;27;20353;-65
2023/09/19 10:04:29;;;;;;;10.65;4.88;;;;;;;26.24;95.43;98445.44;5179826;27;20057;-68
2023/09/19 10:06:55;;;;;;;8.13;4.68;;;;;;;26.29;90.57;98444.75;5180051;27;20069;-66
2023/09/19 10:09:29;;;;;;;8.85;5.00;;;;;;;26.15;92.12;98451.19;5179741;27;20078;-62
2023/09/19 10:12:03;;;;;;;8.82;4.90;;;;;;;25.81;93.32;98439.44;5180106;27;20042;-62
2023/09/19 10:14:34;;;;;;;7.72;5.28;;;;;;;25.64;96.11;98440.41;5179462;27;20141;-66
2023/09/19 10:17:04;;;;;;;8.73;4.38;;;;;;;26.15;91.02;98431.53;5179991;27;20054;-69
2023/09/19 10:19:38;;;;;;;7.38;5.20;;;;;;;26.62;87.73;98446.47;5179556;27;20073;-62
2023/09/19 10:22:05;;;;;;;10.18;5.25;;;;;;;25.11;95.54;98437.19;5179443;27;20114;-64
2023/09/19 10:24:36;;;;;;;7.85;4.72;;;;;;;25.46;94.38;98424.53;5179668;27;20065;-63
2023/09/19 10:27:03;;;;;;;8.55;5.10;;;;;;;26.21;87.83;98431.59;5179205;27;20411;-64
2023/09/19 10:29:35;;;;;;;13.10;5.00;;;;;;;26.72;89.56;98422.59;5179328;27;20415;-69
2023/09/19 10:32:05;;;;;;;9.23;4.95;;;;;;;25.91;88.94;98428.88;5179193;27;20046;-70
2023/09/19 10:34:35;;;;;;;7.32;5.25;;;;;;;25.48;87.33;98427.63;5179889;27;20395;-68
2023/09/19 10:37:05;;;;;;;10.95;4.85;;;;;;;25.87;87.70;98411.47;5178880;27;20320;-67
2023/09/19 10:39:32;;;;;;;9.88;4.85;;;;;;;26.72;82.81;98428.22;5179164;27;20053;-69
2023/09/19 10:42:05;;;;;;;7.60;5.10;;;;;;;25.50;85.24;98411.88;5179252;27;20132;-63
2023/09/19 10:44:33;;;;;;;11.63;4.10;;;;;;;25.28;89.15;98398.22;5179229;27;20054;-68
2023/09/19 10:46:59;;;;;;;9.18;5.00;;;;;;;25.51;88.48;98407.03;5179415;27;20050;-67
2023/09/19 10:49:25;;;;;;;11.25;4.45;;;;;;;25.75;82.41;98412.50;5179075;27;20107;-60
2023/09/19 10:51:58;;;;;;;11.75;5.28;;;;;;;25.66;79.36;98407.81;5179099;27;20425;-64
2023/09/19 10:54:29;;;;;;;10.88;4.60;;;;;;;25.55;78.08;98410.41;5179034;27;20065;-64
2023/09/19 10:56:58;;;;;;;9.57;4.57;;;;;;;24.96;79.50;98418.75;5179300;27;20170;-64
2023/09/19 10:59:25;;;;;;;6.15;5.10;;;;;;;24.93;81.93;98409.31;5178907;27;20057;-61
2023/09/19 11:01:56;;;;;;;9.82;4.82;;;;;;;25.36;82.19;98401.44;5179182;27;20046;-62
2023/09/19 11:04:28;;;;;;;5.63;4.55;;;;;;;25.91;76.01;98414.84;5178684;27;20332;-66
2023/09/19 11:07:04;;;;;;;7.10;4.75;;;;;;;25.24;78.87;98405.31;5178783;27;20050;-61
2023/09/19 11:09:47;;;;;;;14.15;5.53;;;;;;;25.69;79.98;98401.22;5179094;27;20342;-64
2023/09/19 11:12:13;;;;;;;6.72;4.55;;;;;;;24.92;83.59;98404.94;5178773;27;20053;-64
2023/09/19 11:14:42;;;;;;;12.57;5.15;;;;;;;25.41;85.85;98399.97;5178854;27;20046;-68
2023/09/19 11:17:42;;;;;;;9.00;6.00;;;;;;;25.63;87.45;98385.53;5178702;27;20141;-58
2023/09/19 11:23:22;;;;;;;8.43;3.10;;;;;;;24.38;86.71;98399.25;5178426;27;20050;-67
2023/09/19 11:25:49;;;;;;;10.35;5.15;;;;;;;24.48;87.53;98399.22;5178697;27;20161;-67
2023/09/19 11:28:36;;;;;;;10.10;5.00;;;;;;;24.10;86.58;98401.47;5178585;27;20043;-62
2023/09/19 11:31:57;;;;;;;6.05;3.67;;;;;;;24.64;86.58;98399.56;5178520;27;20404;-64
2023/09/19 11:34:50;;;;;;;5.38;4.45;;;;;;;24.20;87.48;98399.41;5178525;27;20050;-61
2023/09/19 11:38:15;;;;;;;5.82;3.45;;;;;;;24.37;89.22;98392.13;5178697;27;20046;-63
2023/09/19 11:40:45;;;;;;;6.40;3.28;;;;;;;24.63;87.16;98395.22;5178421;27;20053;-64